sensor_id;sensor_type;location;lat;lon;timestamp;temperature;humidity
57434;DHT22;43277;52.672;6.984;2023-02-15T00:01:37;1.40;99.90
57434;DHT22;43277;52.672;6.984;2023-02-15T00:04:04;1.30;99.90
57434;DHT22;43277;52.672;6.984;2023-02-15T00:06:30;1.30;99.90
57434;DHT22;43277;52.672;6.984;2023-02-15T00:08:57;1.30;99.90
57434;DHT22;43277;52.672;6.984;2023-02-15T00:11:23;1.30;99.90
57434;DHT22;43277;52.672;6.984;2023-02-15T00:14:19;1.20;99.90
57434;DHT22;43277;52.672;6.984;2023-02-15T00:16:46;1.20;99.90
57434;DHT22;43277;52.672;6.984;2023-02-15T00:19:13;1.20;99.90
57434;DHT22;43277;52.672;6.984;2023-02-15T00:21:40;1.10;99.90
57434;DHT22;43277;52.672;6.984;2023-02-15T00:24:08;1.20;99.90
57434;DHT22;43277;52.672;6.984;2023-02-15T00:26:35;1.10;99.90
57434;DHT22;43277;52.672;6.984;2023-02-15T00:29:01;1.10;99.90
57434;DHT22;43277;52.672;6.984;2023-02-15T00:31:28;1.10;99.90
57434;DHT22;43277;52.672;6.984;2023-02-15T00:33:56;1.10;99.90
57434;DHT22;43277;52.672;6.984;2023-02-15T00:36:21;1.00;99.90
57434;DHT22;43277;52.672;6.984;2023-02-15T00:38:47;1.10;99.90
57434;DHT22;43277;52.672;6.984;2023-02-15T00:41:12;1.10;99.90
57434;DHT22;43277;52.672;6.984;2023-02-15T00:43:38;1.00;99.90
57434;DHT22;43277;52.672;6.984;2023-02-15T00:46:04;1.00;99.90
57434;DHT22;43277;52.672;6.984;2023-02-15T00:48:30;1.00;99.90
57434;DHT22;43277;52.672;6.984;2023-02-15T00:50:58;1.00;99.90
57434;DHT22;43277;52.672;6.984;2023-02-15T00:53:25;1.00;99.90
57434;DHT22;43277;52.672;6.984;2023-02-15T00:55:50;1.00;99.90
57434;DHT22;43277;52.672;6.984;2023-02-15T00:58:16;1.00;99.90
57434;DHT22;43277;52.672;6.984;2023-02-15T01:00:45;1.00;99.90
57434;DHT22;43277;52.672;6.984;2023-02-15T01:03:12;1.00;99.90
57434;DHT22;43277;52.672;6.984;2023-02-15T01:05:38;1.00;99.90
57434;DHT22;43277;52.672;6.984;2023-02-15T01:08:04;0.90;99.90
57434;DHT22;43277;52.672;6.984;2023-02-15T01:10:30;0.80;99.90
57434;DHT22;43277;52.672;6.984;2023-02-15T01:12:56;0.80;99.90
57434;DHT22;43277;52.672;6.984;2023-02-15T01:15:23;0.80;99.90
57434;DHT22;43277;52.672;6.984;2023-02-15T01:17:49;0.70;99.90
57434;DHT22;43277;52.672;6.984;2023-02-15T01:20:26;0.70;99.90
57434;DHT22;43277;52.672;6.984;2023-02-15T01:22:53;0.70;99.90
57434;DHT22;43277;52.672;6.984;2023-02-15T01:25:21;0.60;99.90
57434;DHT22;43277;52.672;6.984;2023-02-15T01:27:47;0.60;99.90
57434;DHT22;43277;52.672;6.984;2023-02-15T01:30:14;0.60;99.90
57434;DHT22;43277;52.672;6.984;2023-02-15T01:32:41;0.60;99.90
57434;DHT22;43277;52.672;6.984;2023-02-15T01:35:07;0.60;99.90
57434;DHT22;43277;52.672;6.984;2023-02-15T01:37:34;0.50;99.90
57434;DHT22;43277;52.672;6.984;2023-02-15T01:40:00;0.50;99.90
57434;DHT22;43277;52.672;6.984;2023-02-15T01:42:27;0.40;99.90
57434;DHT22;43277;52.672;6.984;2023-02-15T01:45:04;0.40;99.90
57434;DHT22;43277;52.672;6.984;2023-02-15T01:50:36;0.40;99.90
57434;DHT22;43277;52.672;6.984;2023-02-15T01:53:22;0.40;99.90
57434;DHT22;43277;52.672;6.984;2023-02-15T01:56:00;0.40;99.90
57434;DHT22;43277;52.672;6.984;2023-02-15T01:58:28;0.50;99.90
57434;DHT22;43277;52.672;6.984;2023-02-15T02:00:55;0.50;99.90
57434;DHT22;43277;52.672;6.984;2023-02-15T02:03:35;0.50;99.90
57434;DHT22;43277;52.672;6.984;2023-02-15T02:06:02;0.60;99.90
57434;DHT22;43277;52.672;6.984;2023-02-15T02:08:28;0.60;99.90
57434;DHT22;43277;52.672;6.984;2023-02-15T02:10:53;0.60;99.90
57434;DHT22;43277;52.672;6.984;2023-02-15T02:13:19;0.60;99.90
57434;DHT22;43277;52.672;6.984;2023-02-15T02:26:35;0.60;99.90
57434;DHT22;43277;52.672;6.984;2023-02-15T02:29:32;0.60;99.90
57434;DHT22;43277;52.672;6.984;2023-02-15T02:37:49;0.50;99.90
57434;DHT22;43277;52.672;6.984;2023-02-15T02:40:36;0.40;99.90
57434;DHT22;43277;52.672;6.984;2023-02-15T02:43:15;0.30;99.90
57434;DHT22;43277;52.672;6.984;2023-02-15T02:46:02;0.20;99.90
57434;DHT22;43277;52.672;6.984;2023-02-15T02:48:33;0.20;99.90
57434;DHT22;43277;52.672;6.984;2023-02-15T02:50:59;0.20;99.90
57434;DHT22;43277;52.672;6.984;2023-02-15T02:53:26;0.20;99.90
57434;DHT22;43277;52.672;6.984;2023-02-15T02:56:01;0.20;99.90
57434;DHT22;43277;52.672;6.984;2023-02-15T02:58:37;0.20;99.90
57434;DHT22;43277;52.672;6.984;2023-02-15T03:01:24;0.30;99.90
57434;DHT22;43277;52.672;6.984;2023-02-15T03:03:55;0.30;99.90
57434;DHT22;43277;52.672;6.984;2023-02-15T03:06:30;0.30;99.90
57434;DHT22;43277;52.672;6.984;2023-02-15T03:09:03;0.40;99.90
57434;DHT22;43277;52.672;6.984;2023-02-15T03:11:31;0.40;99.90
57434;DHT22;43277;52.672;6.984;2023-02-15T03:13:57;0.30;99.90
57434;DHT22;43277;52.672;6.984;2023-02-15T03:16:23;0.30;99.90
57434;DHT22;43277;52.672;6.984;2023-02-15T03:18:58;0.30;99.90
57434;DHT22;43277;52.672;6.984;2023-02-15T03:21:56;0.30;99.90
57434;DHT22;43277;52.672;6.984;2023-02-15T03:24:38;0.30;99.90
57434;DHT22;43277;52.672;6.984;2023-02-15T03:27:10;0.20;99.90
57434;DHT22;43277;52.672;6.984;2023-02-15T03:29:38;0.20;99.90
57434;DHT22;43277;52.672;6.984;2023-02-15T03:32:06;0.10;99.90
57434;DHT22;43277;52.672;6.984;2023-02-15T03:34:33;0.10;99.90
57434;DHT22;43277;52.672;6.984;2023-02-15T03:37:28;0.10;99.90
57434;DHT22;43277;52.672;6.984;2023-02-15T03:40:00;0.00;99.90
57434;DHT22;43277;52.672;6.984;2023-02-15T03:42:50;0.00;99.90
57434;DHT22;43277;52.672;6.984;2023-02-15T03:45:24;0.00;99.90
57434;DHT22;43277;52.672;6.984;2023-02-15T03:47:52;0.00;99.90
57434;DHT22;43277;52.672;6.984;2023-02-15T03:50:24;0.10;99.90
57434;DHT22;43277;52.672;6.984;2023-02-15T03:53:11;0.10;99.90
57434;DHT22;43277;52.672;6.984;2023-02-15T03:55:39;0.10;99.90
57434;DHT22;43277;52.672;6.984;2023-02-15T03:58:05;0.20;99.90
57434;DHT22;43277;52.672;6.984;2023-02-15T04:01:03;0.20;99.90
57434;DHT22;43277;52.672;6.984;2023-02-15T04:04:01;0.20;99.90
57434;DHT22;43277;52.672;6.984;2023-02-15T04:06:28;0.20;99.90
57434;DHT22;43277;52.672;6.984;2023-02-15T04:08:54;0.10;99.90
57434;DHT22;43277;52.672;6.984;2023-02-15T04:11:47;0.10;99.90
57434;DHT22;43277;52.672;6.984;2023-02-15T04:14:12;0.10;99.90
57434;DHT22;43277;52.672;6.984;2023-02-15T04:16:57;0.10;99.90
57434;DHT22;43277;52.672;6.984;2023-02-15T04:19:22;0.00;99.90
57434;DHT22;43277;52.672;6.984;2023-02-15T04:22:06;0.00;99.90
57434;DHT22;43277;52.672;6.984;2023-02-15T04:24:50;0.00;99.90
57434;DHT22;43277;52.672;6.984;2023-02-15T04:27:36;-0.10;99.90
57434;DHT22;43277;52.672;6.984;2023-02-15T04:30:03;-0.10;99.90
57434;DHT22;43277;52.672;6.984;2023-02-15T04:32:28;-0.20;99.90
57434;DHT22;43277;52.672;6.984;2023-02-15T04:34:54;-0.20;99.90
57434;DHT22;43277;52.672;6.984;2023-02-15T04:37:20;-0.20;99.90
57434;DHT22;43277;52.672;6.984;2023-02-15T04:39:45;-0.20;99.90
57434;DHT22;43277;52.672;6.984;2023-02-15T04:42:11;-0.10;99.90
57434;DHT22;43277;52.672;6.984;2023-02-15T04:44:36;-0.10;99.90
57434;DHT22;43277;52.672;6.984;2023-02-15T04:47:02;-0.20;99.90
57434;DHT22;43277;52.672;6.984;2023-02-15T04:49:28;-0.10;99.90
57434;DHT22;43277;52.672;6.984;2023-02-15T04:51:53;-0.10;99.90
57434;DHT22;43277;52.672;6.984;2023-02-15T04:54:19;-0.10;99.90
57434;DHT22;43277;52.672;6.984;2023-02-15T04:56:44;-0.10;99.90
57434;DHT22;43277;52.672;6.984;2023-02-15T04:59:11;-0.10;99.90
57434;DHT22;43277;52.672;6.984;2023-02-15T05:01:37;0.00;99.90
57434;DHT22;43277;52.672;6.984;2023-02-15T05:04:03;-0.10;99.90
57434;DHT22;43277;52.672;6.984;2023-02-15T05:06:28;-0.10;99.90
57434;DHT22;43277;52.672;6.984;2023-02-15T05:08:54;-0.20;99.90
57434;DHT22;43277;52.672;6.984;2023-02-15T05:11:20;-0.20;99.90
57434;DHT22;43277;52.672;6.984;2023-02-15T05:13:46;-0.30;99.90
57434;DHT22;43277;52.672;6.984;2023-02-15T05:16:11;-0.30;99.90
57434;DHT22;43277;52.672;6.984;2023-02-15T05:18:37;-0.40;99.90
57434;DHT22;43277;52.672;6.984;2023-02-15T05:21:03;-0.50;99.90
57434;DHT22;43277;52.672;6.984;2023-02-15T05:23:28;-0.50;99.90
57434;DHT22;43277;52.672;6.984;2023-02-15T05:25:54;-0.50;99.90
57434;DHT22;43277;52.672;6.984;2023-02-15T05:28:38;-0.50;99.90
57434;DHT22;43277;52.672;6.984;2023-02-15T05:31:06;-0.50;99.90
57434;DHT22;43277;52.672;6.984;2023-02-15T05:33:33;-0.40;99.90
57434;DHT22;43277;52.672;6.984;2023-02-15T05:35:59;-0.40;99.90
57434;DHT22;43277;52.672;6.984;2023-02-15T05:38:24;-0.40;99.90
57434;DHT22;43277;52.672;6.984;2023-02-15T05:40:51;-0.40;99.90
57434;DHT22;43277;52.672;6.984;2023-02-15T05:43:17;-0.40;99.90
57434;DHT22;43277;52.672;6.984;2023-02-15T05:45:47;-0.40;99.90
57434;DHT22;43277;52.672;6.984;2023-02-15T05:48:13;-0.30;99.90
57434;DHT22;43277;52.672;6.984;2023-02-15T05:50:38;-0.20;99.90
57434;DHT22;43277;52.672;6.984;2023-02-15T05:53:04;-0.20;99.90
57434;DHT22;43277;52.672;6.984;2023-02-15T05:55:29;-0.20;99.90
57434;DHT22;43277;52.672;6.984;2023-02-15T05:57:55;-0.20;99.90
57434;DHT22;43277;52.672;6.984;2023-02-15T06:00:20;-0.30;99.90
57434;DHT22;43277;52.672;6.984;2023-02-15T06:02:46;-0.30;99.90
57434;DHT22;43277;52.672;6.984;2023-02-15T06:05:12;-0.30;99.90
57434;DHT22;43277;52.672;6.984;2023-02-15T06:07:37;-0.30;99.90
57434;DHT22;43277;52.672;6.984;2023-02-15T06:10:04;-0.20;99.90
57434;DHT22;43277;52.672;6.984;2023-02-15T06:12:29;-0.20;99.90
57434;DHT22;43277;52.672;6.984;2023-02-15T06:14:56;-0.20;99.90
57434;DHT22;43277;52.672;6.984;2023-02-15T06:17:21;-0.10;99.90
57434;DHT22;43277;52.672;6.984;2023-02-15T06:19:47;-0.10;99.90
57434;DHT22;43277;52.672;6.984;2023-02-15T06:22:13;0.00;99.90
57434;DHT22;43277;52.672;6.984;2023-02-15T06:24:39;0.00;99.90
57434;DHT22;43277;52.672;6.984;2023-02-15T06:27:05;0.10;99.90
57434;DHT22;43277;52.672;6.984;2023-02-15T06:29:31;0.00;99.90
57434;DHT22;43277;52.672;6.984;2023-02-15T06:31:56;0.10;99.90
57434;DHT22;43277;52.672;6.984;2023-02-15T06:34:22;0.10;99.90
57434;DHT22;43277;52.672;6.984;2023-02-15T06:36:47;0.10;99.90
57434;DHT22;43277;52.672;6.984;2023-02-15T06:39:13;0.10;99.90
57434;DHT22;43277;52.672;6.984;2023-02-15T06:41:39;0.10;99.90
57434;DHT22;43277;52.672;6.984;2023-02-15T06:44:04;0.10;99.90
57434;DHT22;43277;52.672;6.984;2023-02-15T06:46:30;0.10;99.90
57434;DHT22;43277;52.672;6.984;2023-02-15T06:48:55;0.10;99.90
57434;DHT22;43277;52.672;6.984;2023-02-15T06:51:21;0.00;99.90
57434;DHT22;43277;52.672;6.984;2023-02-15T06:53:47;0.00;99.90
57434;DHT22;43277;52.672;6.984;2023-02-15T06:56:12;0.00;99.90
57434;DHT22;43277;52.672;6.984;2023-02-15T06:58:39;0.00;99.90
57434;DHT22;43277;52.672;6.984;2023-02-15T07:01:06;0.00;99.90
57434;DHT22;43277;52.672;6.984;2023-02-15T07:03:32;0.00;99.90
57434;DHT22;43277;52.672;6.984;2023-02-15T07:05:59;0.00;99.90
57434;DHT22;43277;52.672;6.984;2023-02-15T07:08:26;0.10;99.90
57434;DHT22;43277;52.672;6.984;2023-02-15T07:10:53;0.10;99.90
57434;DHT22;43277;52.672;6.984;2023-02-15T07:13:19;0.00;99.90
57434;DHT22;43277;52.672;6.984;2023-02-15T07:15:46;0.00;99.90
57434;DHT22;43277;52.672;6.984;2023-02-15T07:18:12;0.00;99.90
57434;DHT22;43277;52.672;6.984;2023-02-15T07:20:38;0.00;99.90
57434;DHT22;43277;52.672;6.984;2023-02-15T07:23:04;0.10;99.90
57434;DHT22;43277;52.672;6.984;2023-02-15T07:25:30;0.10;99.90
57434;DHT22;43277;52.672;6.984;2023-02-15T07:28:00;0.10;99.90
57434;DHT22;43277;52.672;6.984;2023-02-15T07:30:27;0.20;99.90
57434;DHT22;43277;52.672;6.984;2023-02-15T07:32:59;0.20;99.90
57434;DHT22;43277;52.672;6.984;2023-02-15T07:35:54;0.20;99.90
57434;DHT22;43277;52.672;6.984;2023-02-15T07:38:21;0.30;99.90
57434;DHT22;43277;52.672;6.984;2023-02-15T07:40:47;0.30;99.90
57434;DHT22;43277;52.672;6.984;2023-02-15T07:43:13;0.30;99.90
57434;DHT22;43277;52.672;6.984;2023-02-15T07:45:40;0.40;99.90
57434;DHT22;43277;52.672;6.984;2023-02-15T07:48:07;0.40;99.90
57434;DHT22;43277;52.672;6.984;2023-02-15T07:50:33;0.50;99.90
57434;DHT22;43277;52.672;6.984;2023-02-15T07:53:01;0.60;99.90
57434;DHT22;43277;52.672;6.984;2023-02-15T07:55:27;0.60;99.90
57434;DHT22;43277;52.672;6.984;2023-02-15T07:57:52;0.70;99.90
57434;DHT22;43277;52.672;6.984;2023-02-15T08:00:21;0.80;99.90
57434;DHT22;43277;52.672;6.984;2023-02-15T08:02:54;0.80;99.90
57434;DHT22;43277;52.672;6.984;2023-02-15T08:05:43;0.90;99.90
57434;DHT22;43277;52.672;6.984;2023-02-15T08:08:09;1.00;99.90
57434;DHT22;43277;52.672;6.984;2023-02-15T08:10:58;1.00;99.90
57434;DHT22;43277;52.672;6.984;2023-02-15T08:13:44;1.10;99.90
57434;DHT22;43277;52.672;6.984;2023-02-15T08:16:20;1.20;99.90
57434;DHT22;43277;52.672;6.984;2023-02-15T08:18:46;1.20;99.90
57434;DHT22;43277;52.672;6.984;2023-02-15T08:21:12;1.30;99.90
57434;DHT22;43277;52.672;6.984;2023-02-15T08:23:37;1.40;99.90
57434;DHT22;43277;52.672;6.984;2023-02-15T08:26:03;1.40;99.90
57434;DHT22;43277;52.672;6.984;2023-02-15T08:28:30;1.50;99.90
57434;DHT22;43277;52.672;6.984;2023-02-15T08:31:04;1.60;99.90
57434;DHT22;43277;52.672;6.984;2023-02-15T08:33:30;1.60;99.90
57434;DHT22;43277;52.672;6.984;2023-02-15T08:35:55;1.70;99.90
57434;DHT22;43277;52.672;6.984;2023-02-15T08:38:21;1.80;99.90
57434;DHT22;43277;52.672;6.984;2023-02-15T08:40:47;1.90;99.90
57434;DHT22;43277;52.672;6.984;2023-02-15T08:43:12;2.00;99.90
57434;DHT22;43277;52.672;6.984;2023-02-15T08:45:38;2.00;99.90
57434;DHT22;43277;52.672;6.984;2023-02-15T08:48:03;2.10;99.90
57434;DHT22;43277;52.672;6.984;2023-02-15T08:50:29;2.20;99.90
57434;DHT22;43277;52.672;6.984;2023-02-15T08:52:55;2.30;99.90
57434;DHT22;43277;52.672;6.984;2023-02-15T08:55:21;2.40;99.90
57434;DHT22;43277;52.672;6.984;2023-02-15T08:57:47;2.50;99.90
57434;DHT22;43277;52.672;6.984;2023-02-15T09:00:13;2.60;99.90
57434;DHT22;43277;52.672;6.984;2023-02-15T09:02:39;2.60;99.90
57434;DHT22;43277;52.672;6.984;2023-02-15T09:05:05;2.70;99.90
57434;DHT22;43277;52.672;6.984;2023-02-15T09:07:30;2.80;99.90
57434;DHT22;43277;52.672;6.984;2023-02-15T09:09:56;2.90;99.90
57434;DHT22;43277;52.672;6.984;2023-02-15T09:12:22;2.90;99.90
57434;DHT22;43277;52.672;6.984;2023-02-15T09:14:47;3.00;99.90
57434;DHT22;43277;52.672;6.984;2023-02-15T09:17:13;3.10;99.90
57434;DHT22;43277;52.672;6.984;2023-02-15T09:19:38;3.30;99.90
57434;DHT22;43277;52.672;6.984;2023-02-15T09:22:04;3.30;99.90
57434;DHT22;43277;52.672;6.984;2023-02-15T09:24:32;3.40;99.90
57434;DHT22;43277;52.672;6.984;2023-02-15T09:26:59;3.50;99.90
57434;DHT22;43277;52.672;6.984;2023-02-15T09:29:24;3.60;99.90
57434;DHT22;43277;52.672;6.984;2023-02-15T09:31:50;3.70;99.90
57434;DHT22;43277;52.672;6.984;2023-02-15T09:34:18;3.80;99.90
57434;DHT22;43277;52.672;6.984;2023-02-15T09:36:45;3.80;99.90
57434;DHT22;43277;52.672;6.984;2023-02-15T09:39:15;3.90;99.90
57434;DHT22;43277;52.672;6.984;2023-02-15T09:44:52;4.10;99.90
57434;DHT22;43277;52.672;6.984;2023-02-15T10:02:32;4.90;99.90
57434;DHT22;43277;52.672;6.984;2023-02-15T10:05:30;5.00;99.90
57434;DHT22;43277;52.672;6.984;2023-02-15T10:17:06;5.90;99.90
57434;DHT22;43277;52.672;6.984;2023-02-15T10:22:29;6.20;99.90
57434;DHT22;43277;52.672;6.984;2023-02-15T10:25:23;6.50;99.90
57434;DHT22;43277;52.672;6.984;2023-02-15T10:27:55;6.70;99.90
57434;DHT22;43277;52.672;6.984;2023-02-15T10:30:48;6.80;99.90
57434;DHT22;43277;52.672;6.984;2023-02-15T10:33:24;6.90;99.90
57434;DHT22;43277;52.672;6.984;2023-02-15T10:36:22;7.00;99.90
57434;DHT22;43277;52.672;6.984;2023-02-15T10:39:02;7.20;99.90
57434;DHT22;43277;52.672;6.984;2023-02-15T10:41:53;7.40;99.90
57434;DHT22;43277;52.672;6.984;2023-02-15T10:44:47;7.60;99.90
57434;DHT22;43277;52.672;6.984;2023-02-15T10:47:32;7.70;99.90
57434;DHT22;43277;52.672;6.984;2023-02-15T10:58:38;8.30;99.90
57434;DHT22;43277;52.672;6.984;2023-02-15T11:06:59;8.60;99.90
57434;DHT22;43277;52.672;6.984;2023-02-15T11:09:37;8.60;99.90
57434;DHT22;43277;52.672;6.984;2023-02-15T11:12:12;8.80;99.90
57434;DHT22;43277;52.672;6.984;2023-02-15T11:17:33;9.20;99.90
57434;DHT22;43277;52.672;6.984;2023-02-15T11:20:35;9.40;99.90
57434;DHT22;43277;52.672;6.984;2023-02-15T11:23:13;9.60;99.90
57434;DHT22;43277;52.672;6.984;2023-02-15T11:25:44;9.70;99.90
57434;DHT22;43277;52.672;6.984;2023-02-15T11:28:18;9.80;99.90
57434;DHT22;43277;52.672;6.984;2023-02-15T11:30:50;10.00;99.90
57434;DHT22;43277;52.672;6.984;2023-02-15T11:33:27;10.20;99.90
57434;DHT22;43277;52.672;6.984;2023-02-15T11:36:03;10.40;99.90
57434;DHT22;43277;52.672;6.984;2023-02-15T11:38:34;10.40;99.90
57434;DHT22;43277;52.672;6.984;2023-02-15T11:41:13;10.40;99.90
57434;DHT22;43277;52.672;6.984;2023-02-15T11:43:44;10.60;99.90
57434;DHT22;43277;52.672;6.984;2023-02-15T11:46:13;10.80;99.90
57434;DHT22;43277;52.672;6.984;2023-02-15T11:48:40;11.10;99.90
57434;DHT22;43277;52.672;6.984;2023-02-15T11:51:18;11.00;99.90
57434;DHT22;43277;52.672;6.984;2023-02-15T11:53:44;11.10;99.90
57434;DHT22;43277;52.672;6.984;2023-02-15T11:56:18;11.20;99.90
57434;DHT22;43277;52.672;6.984;2023-02-15T11:59:01;11.10;99.90
57434;DHT22;43277;52.672;6.984;2023-02-15T12:01:32;11.30;99.90
57434;DHT22;43277;52.672;6.984;2023-02-15T12:06:51;11.00;99.90
57434;DHT22;43277;52.672;6.984;2023-02-15T12:09:34;10.80;99.90
57434;DHT22;43277;52.672;6.984;2023-02-15T12:14:54;10.80;99.90
57434;DHT22;43277;52.672;6.984;2023-02-15T12:17:28;10.70;99.90
57434;DHT22;43277;52.672;6.984;2023-02-15T12:20:01;10.80;99.90
57434;DHT22;43277;52.672;6.984;2023-02-15T12:22:30;10.90;99.90
57434;DHT22;43277;52.672;6.984;2023-02-15T12:25:00;10.70;99.90
57434;DHT22;43277;52.672;6.984;2023-02-15T12:27:31;10.70;99.90
57434;DHT22;43277;52.672;6.984;2023-02-15T12:30:04;10.70;99.90
57434;DHT22;43277;52.672;6.984;2023-02-15T12:32:56;10.70;99.90
57434;DHT22;43277;52.672;6.984;2023-02-15T12:35:30;10.80;99.90
57434;DHT22;43277;52.672;6.984;2023-02-15T12:38:09;10.60;99.90
57434;DHT22;43277;52.672;6.984;2023-02-15T12:41:04;10.70;99.90
57434;DHT22;43277;52.672;6.984;2023-02-15T12:43:36;10.80;99.90
57434;DHT22;43277;52.672;6.984;2023-02-15T12:46:24;10.80;99.90
57434;DHT22;43277;52.672;6.984;2023-02-15T12:49:07;11.00;99.90
57434;DHT22;43277;52.672;6.984;2023-02-15T13:04:53;11.60;99.90
57434;DHT22;43277;52.672;6.984;2023-02-15T13:07:19;11.70;99.90
57434;DHT22;43277;52.672;6.984;2023-02-15T13:09:45;11.70;99.90
57434;DHT22;43277;52.672;6.984;2023-02-15T13:12:21;11.70;99.90
57434;DHT22;43277;52.672;6.984;2023-02-15T13:14:50;11.70;99.90
57434;DHT22;43277;52.672;6.984;2023-02-15T13:17:25;11.70;99.90
57434;DHT22;43277;52.672;6.984;2023-02-15T13:19:56;11.70;99.90
57434;DHT22;43277;52.672;6.984;2023-02-15T13:22:33;11.80;99.90
57434;DHT22;43277;52.672;6.984;2023-02-15T13:25:12;11.80;99.90
57434;DHT22;43277;52.672;6.984;2023-02-15T13:27:41;11.80;99.90
57434;DHT22;43277;52.672;6.984;2023-02-15T13:30:22;11.90;99.90
57434;DHT22;43277;52.672;6.984;2023-02-15T13:32:49;11.90;99.90
57434;DHT22;43277;52.672;6.984;2023-02-15T13:35:17;12.10;99.90
57434;DHT22;43277;52.672;6.984;2023-02-15T13:40:55;12.10;99.90
57434;DHT22;43277;52.672;6.984;2023-02-15T13:49:02;12.20;99.90
57434;DHT22;43277;52.672;6.984;2023-02-15T13:51:45;12.30;99.90
57434;DHT22;43277;52.672;6.984;2023-02-15T13:54:28;12.30;99.90
57434;DHT22;43277;52.672;6.984;2023-02-15T14:13:58;12.70;99.90
57434;DHT22;43277;52.672;6.984;2023-02-15T14:16:33;12.90;99.90
57434;DHT22;43277;52.672;6.984;2023-02-15T14:21:58;12.90;99.90
57434;DHT22;43277;52.672;6.984;2023-02-15T14:24:38;13.00;99.90
57434;DHT22;43277;52.672;6.984;2023-02-15T14:30:25;13.00;99.90
57434;DHT22;43277;52.672;6.984;2023-02-15T14:32:55;13.00;99.90
57434;DHT22;43277;52.672;6.984;2023-02-15T14:35:27;12.80;99.90
57434;DHT22;43277;52.672;6.984;2023-02-15T14:44:06;12.50;99.90
57434;DHT22;43277;52.672;6.984;2023-02-15T15:02:46;12.20;99.90
57434;DHT22;43277;52.672;6.984;2023-02-15T15:05:32;12.00;99.90
57434;DHT22;43277;52.672;6.984;2023-02-15T15:08:01;11.90;99.90
57434;DHT22;43277;52.672;6.984;2023-02-15T15:10:38;11.80;99.90
57434;DHT22;43277;52.672;6.984;2023-02-15T15:15:55;11.70;99.90
57434;DHT22;43277;52.672;6.984;2023-02-15T15:18:47;11.70;99.90
57434;DHT22;43277;52.672;6.984;2023-02-15T15:27:42;11.30;99.90
57434;DHT22;43277;52.672;6.984;2023-02-15T15:41:16;11.10;99.90
57434;DHT22;43277;52.672;6.984;2023-02-15T15:47:02;10.90;99.90
57434;DHT22;43277;52.672;6.984;2023-02-15T15:49:32;10.80;99.90
57434;DHT22;43277;52.672;6.984;2023-02-15T15:52:17;10.80;99.90
57434;DHT22;43277;52.672;6.984;2023-02-15T15:54:44;10.70;99.90
57434;DHT22;43277;52.672;6.984;2023-02-15T15:57:39;10.60;99.90
57434;DHT22;43277;52.672;6.984;2023-02-15T16:02:53;10.40;99.90
57434;DHT22;43277;52.672;6.984;2023-02-15T16:05:20;10.30;99.90
57434;DHT22;43277;52.672;6.984;2023-02-15T16:07:46;10.30;99.90
57434;DHT22;43277;52.672;6.984;2023-02-15T16:10:27;10.10;99.90
57434;DHT22;43277;52.672;6.984;2023-02-15T16:12:54;10.10;99.90
57434;DHT22;43277;52.672;6.984;2023-02-15T16:15:28;10.00;99.90
57434;DHT22;43277;52.672;6.984;2023-02-15T16:17:57;9.90;99.90
57434;DHT22;43277;52.672;6.984;2023-02-15T16:20:30;9.90;99.90
57434;DHT22;43277;52.672;6.984;2023-02-15T16:26:23;9.70;99.90
57434;DHT22;43277;52.672;6.984;2023-02-15T16:28:54;9.60;99.90
57434;DHT22;43277;52.672;6.984;2023-02-15T16:31:21;9.50;99.90
57434;DHT22;43277;52.672;6.984;2023-02-15T16:33:54;9.40;99.90
57434;DHT22;43277;52.672;6.984;2023-02-15T16:36:25;9.40;99.90
57434;DHT22;43277;52.672;6.984;2023-02-15T16:41:25;9.10;99.90
57434;DHT22;43277;52.672;6.984;2023-02-15T16:43:54;9.10;99.90
57434;DHT22;43277;52.672;6.984;2023-02-15T16:46:28;8.90;99.90
57434;DHT22;43277;52.672;6.984;2023-02-15T16:48:58;8.90;99.90
57434;DHT22;43277;52.672;6.984;2023-02-15T16:51:27;8.80;99.90
57434;DHT22;43277;52.672;6.984;2023-02-15T16:53:54;8.80;99.90
57434;DHT22;43277;52.672;6.984;2023-02-15T16:56:27;8.80;99.90
57434;DHT22;43277;52.672;6.984;2023-02-15T16:58:54;8.80;99.90
57434;DHT22;43277;52.672;6.984;2023-02-15T17:01:23;8.60;99.90
57434;DHT22;43277;52.672;6.984;2023-02-15T17:03:51;8.50;99.90
57434;DHT22;43277;52.672;6.984;2023-02-15T17:06:35;8.50;99.90
57434;DHT22;43277;52.672;6.984;2023-02-15T17:09:05;8.50;99.90
57434;DHT22;43277;52.672;6.984;2023-02-15T17:11:50;8.50;99.90
57434;DHT22;43277;52.672;6.984;2023-02-15T17:14:20;8.40;99.90
57434;DHT22;43277;52.672;6.984;2023-02-15T17:16:50;8.20;99.90
57434;DHT22;43277;52.672;6.984;2023-02-15T17:21:55;8.30;99.90
57434;DHT22;43277;52.672;6.984;2023-02-15T17:26:57;8.30;99.90
57434;DHT22;43277;52.672;6.984;2023-02-15T17:31:52;8.20;99.90
57434;DHT22;43277;52.672;6.984;2023-02-15T17:35:08;8.10;99.90
57434;DHT22;43277;52.672;6.984;2023-02-15T17:37:43;8.10;99.90
57434;DHT22;43277;52.672;6.984;2023-02-15T17:40:26;8.10;99.90
57434;DHT22;43277;52.672;6.984;2023-02-15T17:42:53;8.00;99.90
57434;DHT22;43277;52.672;6.984;2023-02-15T17:45:20;7.90;99.90
57434;DHT22;43277;52.672;6.984;2023-02-15T17:47:47;7.90;99.90
57434;DHT22;43277;52.672;6.984;2023-02-15T17:50:22;7.90;99.90
57434;DHT22;43277;52.672;6.984;2023-02-15T17:52:48;7.90;99.90
57434;DHT22;43277;52.672;6.984;2023-02-15T17:55:17;7.90;99.90
57434;DHT22;43277;52.672;6.984;2023-02-15T17:58:05;7.80;99.90
57434;DHT22;43277;52.672;6.984;2023-02-15T18:00:32;7.80;99.90
57434;DHT22;43277;52.672;6.984;2023-02-15T18:03:17;7.70;99.90
57434;DHT22;43277;52.672;6.984;2023-02-15T18:06:02;7.70;99.90
57434;DHT22;43277;52.672;6.984;2023-02-15T18:08:47;7.80;99.90
57434;DHT22;43277;52.672;6.984;2023-02-15T18:11:31;7.70;99.90
57434;DHT22;43277;52.672;6.984;2023-02-15T18:14:05;7.70;99.90
57434;DHT22;43277;52.672;6.984;2023-02-15T18:16:39;7.70;99.90
57434;DHT22;43277;52.672;6.984;2023-02-15T18:19:16;7.70;99.90
57434;DHT22;43277;52.672;6.984;2023-02-15T18:21:43;7.70;99.90
57434;DHT22;43277;52.672;6.984;2023-02-15T18:24:21;7.70;99.90
57434;DHT22;43277;52.672;6.984;2023-02-15T18:26:49;7.60;99.90
57434;DHT22;43277;52.672;6.984;2023-02-15T18:29:15;7.60;99.90
57434;DHT22;43277;52.672;6.984;2023-02-15T18:31:41;7.60;99.90
57434;DHT22;43277;52.672;6.984;2023-02-15T18:34:27;7.60;99.90
57434;DHT22;43277;52.672;6.984;2023-02-15T18:36:54;7.50;99.90
57434;DHT22;43277;52.672;6.984;2023-02-15T18:39:41;7.60;99.90
57434;DHT22;43277;52.672;6.984;2023-02-15T18:42:21;7.80;99.90
57434;DHT22;43277;52.672;6.984;2023-02-15T18:44:48;7.80;99.90
57434;DHT22;43277;52.672;6.984;2023-02-15T18:47:14;7.80;99.90
57434;DHT22;43277;52.672;6.984;2023-02-15T18:49:39;7.80;99.90
57434;DHT22;43277;52.672;6.984;2023-02-15T18:52:08;7.70;99.90
57434;DHT22;43277;52.672;6.984;2023-02-15T18:54:38;7.80;99.90
57434;DHT22;43277;52.672;6.984;2023-02-15T18:57:03;7.80;99.90
57434;DHT22;43277;52.672;6.984;2023-02-15T18:59:32;7.80;99.90
57434;DHT22;43277;52.672;6.984;2023-02-15T19:01:58;7.80;99.90
57434;DHT22;43277;52.672;6.984;2023-02-15T19:04:25;7.80;99.90
57434;DHT22;43277;52.672;6.984;2023-02-15T19:06:51;7.80;99.90
57434;DHT22;43277;52.672;6.984;2023-02-15T19:09:21;7.80;99.90